Terminal Aerodrome Forecast
Issued by NWS Knoxville/Tri Cities, TN

Home | Current Version | Previous Version | Text Only | Print | Product List | Glossary On
Versions: 1 2 3 4 5 6 7 8 9 10 11 12 13 14 15 16 17 18
000
FTUS44 KMRX 222331
TAFCHA
TAF
KCHA 222331Z 2300/2324 03008KT P6SM BKN250
     FM230600 02005KT P6SM SCT040
     FM231500 12009KT P6SM SCT040 BKN120
     FM232100 16008KT P6SM BKN100=

USA.gov is the U.S. government's official web portal to all federal, state and local government web resources and services.